General Aviation Weather

Text Reports

Enter one or more of the following location identifiers separated by a space:

Zip Code, Four-Character ICAO or Three-Character IATA airport codes.

METAR - Aviation Routine Weather Report
KLOU - Louisville Bowman, Kentucky
Updated at 12:53 PM GMT on July 03, 2015 (8:53 AM EDT):
METAR KLOU 031253Z 09004KT 10SM OVC006 22/21 A2985 RMK AO2 SLP105 T02220206
TAF - Terminal Area Forecast
KLOU - Louisville Bowman, Kentucky
Updated at 12:53 PM GMT on July 03, 2015 (8:53 AM EDT):
No TAF is currently available for this location.
Decoded:
No decoded TAF is available.
PIREP - Pilot Weather Report
KLOU - Louisville Bowman, Kentucky
Updated at 12:53 PM GMT on July 03, 2015 (8:53 AM EDT):
No PIREP is currently available for this location.
AIRMET - Airmens Meteorological Information
KLOU - Louisville Bowman, Kentucky
Updated at 12:53 PM GMT on July 03, 2015 (8:53 AM EDT):
No AIRMET is currently available for this location.
SIGMET - Significant Meteorological Information
KLOU - Louisville Bowman, Kentucky
Updated at 12:53 PM GMT on July 03, 2015 (8:53 AM EDT):
No SIGMET is currently available for this location.
NOTAM - Notice to Airmen
KLOU - Louisville Bowman, Kentucky
Updated at 12:53 PM GMT on July 03, 2015 (8:53 AM EDT):
No NOTAM is currently available for this location.
Forecast Area
KLOU - Louisville Bowman, Kentucky
Updated at 12:53 PM GMT on July 03, 2015 (8:53 AM EDT):
No NOTAM is currently available for this location.
Aviation Weather Maps